Tanagra Air Base, Greece

5:44 PM EEST on September 23, 2014 (GMT +0300)
Oinofyta Greece | Change Station
CLOSE
Current Station
Personal Weather Station
Location: Oinofyta, VOIOTIA
Elevation: 354 ft
Nearby Weather Stations

Elev 354 ft 38.31 °N, 23.64 °E | Updated 4 seconds ago

Partly Cloudy
Partly Cloudy
89.1 °F
Feels Like 89 °F
N
5.3
Wind Variable Wind from WNW
Gusts 14.5 mph

Today
High -- | Low -- °F
--% Chance of Precip.
Yesterday
High -- | Low -- °F
Precip. -- in
7:14 AM 7:21 PM
Waning Crescent, 0% visible
Pressure 29.71 in
Visibility 6.2 miles
Clouds Few 7000 ft
Heat Index 89 °F
Dew Point 61 °F
Humidity 39%
Rainfall 0.00 in
Snow Depth Not available.
UV 2 out of 12
Pollen Not available.
Air Quality Not available.
Flu Activity Not available.
METAR LGEL 231420Z 28010G22KT 9999 FEW070 34/09 Q1006 NOSIG

More Conditions Fewer Conditions

Pressure 29.71 in
Visibility 6.2 miles
Clouds Few 7000 ft
Heat Index 89 °F
Dew Point 61 °F
Humidity 39%
Rainfall 0.00 in
Snow Depth Not available.
UV 2 out of 12
Pollen Not available.
Air Quality Not available.
Flu Activity Not available.
METAR LGEL 231420Z 28010G22KT 9999 FEW070 34/09 Q1006 NOSIG

More Conditions Fewer Conditions

10-Day Weather Forecast

Almanac

Astronomy

Sep. 23, 2014 Rise Set
Actual Time 7:14 AM EEST 7:21 PM EEST
Civil Twilight 6:47 AM EEST 7:48 PM EEST
Nautical Twilight 6:16 AM EEST 8:18 PM EEST
Astronomical Twilight 5:45 AM EEST 8:50 PM EEST
Moon 6:21 AM EEST 6:50 PM EEST
Length of Visible Light 13h 00m
Length of Day
12h 07m
Tomorrow will be 2m 27s shorter.
Waning Crescent, 0% of the Moon is Illuminated
Today
Waning Crescent
Sep 24
New
Oct 1
First Quarter
Oct 8
Full
Oct 15
Last Quarter

Today's Extremes

Country Highs Country Lows

Community

WunderPhotos

Upload Photos

1,755,711 photos uploaded!

Nearby

Snow Depth

Not available.

Earthquake Activity

City Distance Mag. Time & Date
No recent earthquake activity has been reported nearby.
Minimum magnitude displayed is 2.5.

Coastal Water Temperatures

Place Temperature
No Stations Reporting

Nearby Weather Stations